Terminal Aerodrome Forecast
Issued by NWS Charleston, SC

Home | Current Version | Previous Version | Text Only | Print | Product List | Glossary On
Versions: 1 2 3 4 5 6 7 8 9 10 11 12 13 14 15 16 17 18 19 20 21 22 23
000
FTUS42 KCHS 171700
TAFCHS
TAF
KCHS 171739Z 1718/1818 05011KT P6SM SCT040 BKN250
     FM181000 03013KT P6SM SCT020 BKN030
     FM181300 05015G22KT P6SM SCT007 BKN015=

USA.gov is the U.S. government's official web portal to all federal, state and local government web resources and services.